Time;durP1;ratioP1;P1;durP2;ratioP2;P2;SDS_P1;SDS_P2;PMS_P1;PMS_P2;Temp;Humidity;BMP_temperature;BMP_pressure;BME280_temperature;BME280_humidity;BME280_pressure;Samples;Min_cycle;Max_cycle;Signal;HPM_P1;HPM_P2
2022/05/08 00:00:55;;;;;;;16.17;5.63;;;;;;;;;;5091470;28;20051;-77
2022/05/08 00:03:21;;;;;;;19.60;6.35;;;;;;;;;;5075160;28;20039;-77
2022/05/08 00:05:47;;;;;;;20.55;5.85;;;;;;;;;;5091775;28;20075;-77
2022/05/08 00:08:13;;;;;;;19.48;6.13;;;;;;;;;;5092574;28;20070;-77
2022/05/08 00:10:42;;;;;;;18.05;5.78;;;;;;;;;;5091801;28;20121;-77
2022/05/08 00:13:11;;;;;;;20.83;6.53;;;;;;;;;;5091374;28;20036;-76
2022/05/08 00:15:38;;;;;;;19.90;5.55;;;;;;;;;;5091708;28;20054;-77
2022/05/08 00:18:05;;;;;;;19.85;6.63;;;;;;;;;;5091760;28;20266;-77
2022/05/08 00:20:31;;;;;;;19.48;6.55;;;;;;;;;;5091417;28;20142;-77
2022/05/08 00:22:57;;;;;;;15.05;5.32;;;;;;;;;;5074526;28;20081;-77
2022/05/08 00:25:25;;;;;;;15.57;5.65;;;;;;;;;;5091639;28;20067;-77
2022/05/08 00:27:51;;;;;;;16.63;5.80;;;;;;;;;;5091800;28;20503;-77
2022/05/08 00:30:17;;;;;;;21.75;5.97;;;;;;;;;;5091250;28;20071;-77
2022/05/08 00:32:44;;;;;;;17.23;5.32;;;;;;;;;;5091838;28;20028;-77
2022/05/08 00:35:10;;;;;;;18.75;6.38;;;;;;;;;;5087741;28;20056;-77
2022/05/08 00:37:37;;;;;;;18.05;5.75;;;;;;;;;;5088076;28;20381;-77
2022/05/08 00:40:04;;;;;;;19.40;5.85;;;;;;;;;;5087643;28;20127;-77
2022/05/08 00:42:30;;;;;;;17.92;6.00;;;;;;;;;;5071658;28;20043;-77
2022/05/08 00:44:56;;;;;;;16.42;5.28;;;;;;;;;;5070691;28;20043;-77
2022/05/08 00:47:22;;;;;;;18.90;6.40;;;;;;;;;;5087582;28;20048;-77
2022/05/08 00:49:49;;;;;;;17.90;5.90;;;;;;;;;;5087962;28;20050;-77
2022/05/08 00:52:17;;;;;;;17.65;6.28;;;;;;;;;;5087342;28;20032;-77
2022/05/08 00:54:43;;;;;;;19.25;6.25;;;;;;;;;;5087698;28;20185;-77
2022/05/08 00:57:10;;;;;;;18.20;6.47;;;;;;;;;;5088031;28;20428;-77
2022/05/08 00:59:36;;;;;;;16.40;5.70;;;;;;;;;;5087327;28;20118;-77
2022/05/08 01:02:03;;;;;;;16.33;6.30;;;;;;;;;;5087482;28;20055;-77
2022/05/08 01:04:30;;;;;;;22.25;6.38;;;;;;;;;;5087528;28;20101;-77
2022/05/08 01:06:56;;;;;;;14.07;5.15;;;;;;;;;;5087324;28;20403;-77
2022/05/08 01:09:22;;;;;;;18.83;5.63;;;;;;;;;;5087577;28;20044;-77
2022/05/08 01:11:49;;;;;;;13.63;5.10;;;;;;;;;;5087208;28;20047;-77
2022/05/08 01:14:17;;;;;;;17.48;5.50;;;;;;;;;;5087317;28;20074;-77
2022/05/08 01:16:44;;;;;;;17.55;5.45;;;;;;;;;;5087655;28;20040;-77
2022/05/08 01:19:10;;;;;;;16.90;6.15;;;;;;;;;;5087521;28;20044;-77
2022/05/08 01:21:36;;;;;;;19.10;6.00;;;;;;;;;;5070371;28;20054;-77
2022/05/08 01:24:03;;;;;;;18.33;6.18;;;;;;;;;;5070495;28;20043;-77
2022/05/08 01:26:44;;;;;;;16.95;5.15;;;;;;;;;;5087438;28;20040;-77
2022/05/08 01:29:10;;;;;;;16.08;5.80;;;;;;;;;;5087357;28;20044;-76
2022/05/08 01:31:43;;;;;;;15.75;5.30;;;;;;;;;;5087450;28;20047;-76
2022/05/08 01:34:09;;;;;;;15.57;5.22;;;;;;;;;;5088000;28;20036;-76
2022/05/08 01:36:36;;;;;;;15.77;5.88;;;;;;;;;;5086153;28;20048;-76
2022/05/08 01:39:02;;;;;;;16.35;5.35;;;;;;;;;;5090786;28;20396;-77
2022/05/08 01:41:28;;;;;;;15.80;5.40;;;;;;;;;;5090607;28;20123;-76
2022/05/08 01:43:55;;;;;;;12.45;5.07;;;;;;;;;;5090469;28;20035;-76
2022/05/08 01:46:21;;;;;;;18.35;5.25;;;;;;;;;;5073504;28;20035;-76
2022/05/08 01:48:48;;;;;;;16.35;5.25;;;;;;;;;;5073631;28;20085;-76
2022/05/08 01:51:16;;;;;;;17.05;6.00;;;;;;;;;;5090553;28;20201;-76
2022/05/08 01:53:43;;;;;;;14.82;5.35;;;;;;;;;;5090991;28;20051;-76
2022/05/08 01:56:10;;;;;;;17.77;6.07;;;;;;;;;;5073733;28;20402;-76
2022/05/08 01:58:36;;;;;;;14.57;5.60;;;;;;;;;;5090254;28;20241;-76
2022/05/08 02:01:04;;;;;;;16.25;5.82;;;;;;;;;;5073399;28;20058;-76
2022/05/08 02:03:31;;;;;;;20.40;5.63;;;;;;;;;;5090147;28;20044;-76
2022/05/08 02:05:57;;;;;;;16.92;5.65;;;;;;;;;;5090049;28;20465;-76
2022/05/08 02:08:23;;;;;;;16.15;5.60;;;;;;;;;;5090677;28;20043;-76
2022/05/08 02:10:50;;;;;;;15.45;5.55;;;;;;;;;;5073263;28;20051;-76
2022/05/08 02:13:16;;;;;;;17.70;6.43;;;;;;;;;;5090232;28;20043;-76
2022/05/08 02:15:43;;;;;;;15.07;5.45;;;;;;;;;;5072972;28;20383;-76
2022/05/08 02:18:09;;;;;;;13.35;5.60;;;;;;;;;;5090028;28;20114;-76
2022/05/08 02:20:37;;;;;;;15.55;6.00;;;;;;;;;;5090323;28;20044;-76
2022/05/08 02:23:03;;;;;;;17.08;5.75;;;;;;;;;;5092101;28;20040;-76
2022/05/08 02:25:32;;;;;;;16.27;5.78;;;;;;;;;;5093671;28;20036;-76
2022/05/08 02:27:59;;;;;;;17.00;5.45;;;;;;;;;;5093926;28;20579;-76
2022/05/08 02:30:25;;;;;;;16.52;5.90;;;;;;;;;;5093631;28;20114;-76
2022/05/08 02:32:52;;;;;;;15.27;5.65;;;;;;;;;;5093622;28;20039;-76
2022/05/08 02:35:22;;;;;;;15.00;5.40;;;;;;;;;;5093234;28;20051;-76
2022/05/08 02:37:50;;;;;;;13.38;5.70;;;;;;;;;;5093436;28;20039;-76
2022/05/08 02:40:17;;;;;;;13.45;4.88;;;;;;;;;;5093711;28;20043;-76
2022/05/08 02:42:43;;;;;;;13.77;5.20;;;;;;;;;;5093277;28;20118;-76
2022/05/08 02:45:09;;;;;;;18.02;6.18;;;;;;;;;;5094041;28;20066;-76
2022/05/08 02:47:36;;;;;;;13.90;5.28;;;;;;;;;;5093392;28;20095;-76
2022/05/08 02:50:04;;;;;;;14.18;5.28;;;;;;;;;;5090683;28;20506;-76
2022/05/08 02:52:30;;;;;;;16.48;5.50;;;;;;;;;;5093589;28;20039;-76
2022/05/08 02:54:56;;;;;;;14.35;5.30;;;;;;;;;;5093048;28;20040;-76
2022/05/08 03:00:08;;;;;;;15.15;5.32;;;;;;;;;;5093105;28;20533;-76
2022/05/08 03:02:35;;;;;;;19.77;5.88;;;;;;;;;;5093438;28;20091;-76
2022/05/08 03:05:04;;;;;;;15.95;5.70;;;;;;;;;;5092968;28;20304;-76
2022/05/08 03:07:30;;;;;;;14.73;5.70;;;;;;;;;;5092701;28;20093;-76
2022/05/08 03:09:57;;;;;;;16.00;5.88;;;;;;;;;;5092956;28;20039;-76
2022/05/08 03:12:23;;;;;;;17.30;6.15;;;;;;;;;;5093124;28;20483;-76
2022/05/08 03:14:49;;;;;;;17.63;5.47;;;;;;;;;;5093077;28;20083;-76
2022/05/08 03:17:16;;;;;;;13.27;5.18;;;;;;;;;;5092552;28;20123;-76
2022/05/08 03:19:42;;;;;;;15.05;5.07;;;;;;;;;;5092847;28;20047;-76
2022/05/08 03:22:08;;;;;;;14.60;5.57;;;;;;;;;;5092803;28;20044;-76
2022/05/08 03:24:34;;;;;;;11.10;4.70;;;;;;;;;;5092777;28;20067;-76
2022/05/08 03:27:00;;;;;;;12.80;5.07;;;;;;;;;;5092931;28;20044;-76
2022/05/08 03:29:27;;;;;;;11.38;4.72;;;;;;;;;;5092456;28;20040;-76
2022/05/08 03:31:54;;;;;;;11.65;4.70;;;;;;;;;;5092435;28;20546;-76
2022/05/08 03:34:20;;;;;;;11.20;4.35;;;;;;;;;;5091252;28;20036;-76
2022/05/08 03:36:46;;;;;;;12.63;5.32;;;;;;;;;;5092583;28;20040;-76
2022/05/08 03:39:13;;;;;;;13.63;4.88;;;;;;;;;;5092036;28;20050;-77
2022/05/08 03:41:39;;;;;;;15.05;5.18;;;;;;;;;;5092606;28;20082;-77
2022/05/08 03:44:05;;;;;;;13.32;5.20;;;;;;;;;;5092493;28;20422;-76
2022/05/08 03:46:32;;;;;;;13.35;5.00;;;;;;;;;;5092067;28;20036;-76
2022/05/08 03:48:58;;;;;;;12.57;5.13;;;;;;;;;;5092162;28;20502;-77
2022/05/08 03:51:24;;;;;;;16.75;5.65;;;;;;;;;;5092075;28;20529;-76
2022/05/08 03:53:51;;;;;;;13.02;5.57;;;;;;;;;;5091978;28;20035;-76
2022/05/08 03:56:17;;;;;;;12.55;4.88;;;;;;;;;;5091742;28;20043;-77
2022/05/08 03:58:43;;;;;;;15.23;5.25;;;;;;;;;;5091741;28;20044;-76
2022/05/08 04:01:10;;;;;;;12.98;4.95;;;;;;;;;;5091945;28;20040;-76
2022/05/08 04:03:36;;;;;;;15.60;5.47;;;;;;;;;;5091710;28;20088;-76
2022/05/08 04:06:03;;;;;;;14.55;5.18;;;;;;;;;;5091601;28;20089;-76
2022/05/08 04:08:30;;;;;;;11.02;5.32;;;;;;;;;;5091947;28;20503;-76
2022/05/08 04:10:56;;;;;;;15.68;5.53;;;;;;;;;;5091755;28;20555;-76
2022/05/08 04:13:22;;;;;;;12.20;5.38;;;;;;;;;;5091663;28;20165;-76
2022/05/08 04:18:33;;;;;;;13.30;6.18;;;;;;;;;;5091335;28;20340;-77
2022/05/08 04:20:59;;;;;;;17.70;6.35;;;;;;;;;;5075157;28;20360;-77
2022/05/08 04:26:10;;;;;;;13.95;6.15;;;;;;;;;;5091053;28;20047;-76
2022/05/08 04:28:36;;;;;;;14.20;5.35;;;;;;;;;;5091264;28;20044;-76
2022/05/08 04:31:02;;;;;;;15.50;5.63;;;;;;;;;;5091210;28;20517;-76
2022/05/08 04:33:29;;;;;;;12.65;5.45;;;;;;;;;;5091595;28;20382;-76
2022/05/08 04:35:55;;;;;;;12.57;5.13;;;;;;;;;;5091523;28;20048;-76
2022/05/08 04:38:21;;;;;;;14.20;5.28;;;;;;;;;;5107040;28;20289;-76
2022/05/08 04:40:47;;;;;;;12.63;5.40;;;;;;;;;;5094805;28;20048;-77
2022/05/08 04:43:13;;;;;;;13.38;5.25;;;;;;;;;;5100819;28;20414;-76
2022/05/08 04:45:40;;;;;;;14.68;5.18;;;;;;;;;;5118875;27;20046;-77
2022/05/08 04:48:06;;;;;;;12.63;4.97;;;;;;;;;;5075928;28;20119;-76
2022/05/08 04:50:32;;;;;;;13.98;5.28;;;;;;;;;;5105057;28;20031;-77
2022/05/08 04:52:58;;;;;;;9.13;4.78;;;;;;;;;;5097567;28;20040;-76
2022/05/08 04:55:24;;;;;;;15.57;5.63;;;;;;;;;;5097521;28;20035;-76
2022/05/08 04:57:51;;;;;;;12.10;4.82;;;;;;;;;;5105634;28;20075;-77
2022/05/08 05:00:17;;;;;;;12.00;4.68;;;;;;;;;;5091365;28;20031;-77
2022/05/08 05:02:44;;;;;;;12.52;5.40;;;;;;;;;;5096849;28;20035;-77
2022/05/08 05:05:10;;;;;;;12.40;5.65;;;;;;;;;;5080802;28;20074;-77
2022/05/08 05:07:40;;;;;;;14.05;5.40;;;;;;;;;;5104760;28;20407;-77
2022/05/08 05:10:06;;;;;;;12.43;5.07;;;;;;;;;;5092597;28;20048;-77
2022/05/08 05:12:32;;;;;;;15.52;5.35;;;;;;;;;;5084789;28;20290;-77
2022/05/08 05:15:01;;;;;;;13.73;5.65;;;;;;;;;;5100642;28;20398;-77
2022/05/08 05:17:27;;;;;;;11.10;5.65;;;;;;;;;;5093453;28;20051;-77
2022/05/08 05:19:53;;;;;;;14.88;5.53;;;;;;;;;;5102912;28;20384;-77
2022/05/08 05:22:22;;;;;;;13.30;5.47;;;;;;;;;;5079095;28;20052;-77
2022/05/08 05:24:49;;;;;;;13.27;5.40;;;;;;;;;;5100545;28;20045;-77
2022/05/08 05:27:15;;;;;;;15.32;5.50;;;;;;;;;;5094098;28;20220;-77
2022/05/08 05:29:41;;;;;;;16.05;6.22;;;;;;;;;;5106368;28;20109;-77
2022/05/08 05:32:08;;;;;;;13.85;4.75;;;;;;;;;;5095891;28;20449;-77
2022/05/08 05:34:34;;;;;;;13.52;5.32;;;;;;;;;;5095337;28;20048;-77
2022/05/08 05:37:00;;;;;;;13.10;4.63;;;;;;;;;;5087280;28;20469;-77
2022/05/08 05:39:26;;;;;;;12.32;5.28;;;;;;;;;;5071062;28;20119;-77
2022/05/08 05:41:52;;;;;;;13.45;4.85;;;;;;;;;;5070430;28;20036;-77
2022/05/08 05:44:19;;;;;;;12.10;5.07;;;;;;;;;;5087128;28;20123;-76
2022/05/08 05:49:30;;;;;;;18.30;4.97;;;;;;;;;;5087271;28;20072;-76
2022/05/08 05:51:56;;;;;;;15.15;6.00;;;;;;;;;;5087368;28;20122;-77
2022/05/08 05:54:23;;;;;;;15.40;4.30;;;;;;;;;;5086905;28;20032;-77
2022/05/08 05:56:50;;;;;;;11.18;4.50;;;;;;;;;;5087160;28;20101;-77
2022/05/08 05:59:16;;;;;;;11.77;3.78;;;;;;;;;;5091141;28;20046;-77
2022/05/08 06:01:42;;;;;;;12.45;3.97;;;;;;;;;;5091044;28;20118;-77
2022/05/08 06:04:09;;;;;;;10.57;3.38;;;;;;;;;;5091385;28;20436;-77
2022/05/08 06:06:35;;;;;;;11.80;4.07;;;;;;;;;;5090839;28;20495;-77
2022/05/08 06:09:01;;;;;;;11.10;3.50;;;;;;;;;;5090962;28;20058;-77
2022/05/08 06:11:27;;;;;;;10.75;3.05;;;;;;;;;;5090803;28;20043;-77
2022/05/08 06:13:53;;;;;;;13.45;3.05;;;;;;;;;;5091138;28;20192;-77
2022/05/08 06:16:20;;;;;;;11.00;3.10;;;;;;;;;;5091049;28;20074;-77
2022/05/08 06:18:46;;;;;;;7.50;2.78;;;;;;;;;;5074768;28;20090;-76
2022/05/08 06:21:12;;;;;;;9.35;3.00;;;;;;;;;;5090917;28;20123;-76
2022/05/08 06:23:38;;;;;;;11.65;2.78;;;;;;;;;;5091100;28;20562;-77
2022/05/08 06:26:05;;;;;;;12.68;3.45;;;;;;;;;;5073897;28;20036;-76
2022/05/08 06:28:31;;;;;;;9.43;2.85;;;;;;;;;;5090813;28;20368;-77
2022/05/08 06:30:58;;;;;;;11.48;2.83;;;;;;;;;;5090944;28;20036;-76
2022/05/08 06:33:24;;;;;;;12.05;3.08;;;;;;;;;;5090778;28;20491;-77
2022/05/08 06:35:50;;;;;;;15.57;3.35;;;;;;;;;;5073482;28;20141;-77
2022/05/08 06:38:17;;;;;;;8.55;2.85;;;;;;;;;;5090103;28;20051;-78
2022/05/08 06:40:44;;;;;;;10.07;2.33;;;;;;;;;;5090068;28;20048;-76
2022/05/08 06:43:10;;;;;;;12.30;2.33;;;;;;;;;;5090215;28;20048;-76
2022/05/08 06:45:36;;;;;;;8.40;2.28;;;;;;;;;;5090338;28;20085;-76
2022/05/08 06:48:02;;;;;;;12.48;3.35;;;;;;;;;;5089788;28;20084;-77
2022/05/08 06:50:30;;;;;;;8.02;2.28;;;;;;;;;;5089847;28;20029;-76
2022/05/08 06:52:56;;;;;;;12.38;2.92;;;;;;;;;;5086780;28;20040;-76
2022/05/08 06:55:22;;;;;;;8.05;2.15;;;;;;;;;;5089170;28;20047;-75
2022/05/08 06:57:48;;;;;;;11.57;2.65;;;;;;;;;;5086795;28;20039;-76
2022/05/08 07:02:59;;;;;;;;;;;;;;;;;;5087453;28;20229;-74
2022/05/08 07:05:25;;;;;;;11.70;3.40;;;;;;;;;;5123621;27;19930;-75
2022/05/08 07:07:52;;;;;;;10.48;2.95;;;;;;;;;;5089599;28;20075;-75
2022/05/08 07:10:18;;;;;;;13.95;3.78;;;;;;;;;;5072602;28;20119;-75
2022/05/08 07:12:44;;;;;;;9.50;2.85;;;;;;;;;;5089869;28;20471;-76
2022/05/08 07:15:11;;;;;;;10.63;3.20;;;;;;;;;;5090851;28;20036;-74
2022/05/08 07:17:37;;;;;;;14.50;3.05;;;;;;;;;;5089682;28;20079;-76
2022/05/08 07:20:04;;;;;;;9.85;2.60;;;;;;;;;;5089130;28;20038;-77
2022/05/08 07:22:32;;;;;;;9.05;2.50;;;;;;;;;;5088675;28;20086;-76
2022/05/08 07:24:59;;;;;;;8.55;2.20;;;;;;;;;;5072169;28;20044;-75
2022/05/08 07:27:25;;;;;;;10.23;3.17;;;;;;;;;;5089003;28;20036;-76
2022/05/08 07:29:52;;;;;;;9.15;3.00;;;;;;;;;;5089183;28;20085;-77
2022/05/08 07:32:19;;;;;;;8.65;2.58;;;;;;;;;;5089113;28;20047;-76
2022/05/08 07:37:29;;;;;;;11.82;3.22;;;;;;;;;;5115812;27;20054;-76
2022/05/08 07:39:55;;;;;;;12.15;2.60;;;;;;;;;;5101175;28;20111;-77
2022/05/08 07:42:22;;;;;;;21.27;3.35;;;;;;;;;;5101169;28;20035;-77
2022/05/08 07:44:48;;;;;;;11.55;3.55;;;;;;;;;;5093269;28;20059;-77
2022/05/08 07:47:14;;;;;;;13.93;3.20;;;;;;;;;;5088467;28;20044;-77
2022/05/08 07:49:40;;;;;;;13.18;2.95;;;;;;;;;;5094166;28;20036;-77
2022/05/08 07:52:07;;;;;;;13.43;3.58;;;;;;;;;;5100466;28;20505;-77
2022/05/08 07:54:33;;;;;;;14.32;3.90;;;;;;;;;;5094359;28;20511;-78
2022/05/08 07:56:59;;;;;;;14.60;3.63;;;;;;;;;;5088527;28;20067;-79
2022/05/08 07:59:25;;;;;;;9.30;2.92;;;;;;;;;;5089251;28;20066;-79
2022/05/08 08:01:51;;;;;;;12.02;3.10;;;;;;;;;;5082913;28;20521;-79
2022/05/08 08:04:18;;;;;;;11.50;3.13;;;;;;;;;;5094592;28;20111;-77
2022/05/08 08:06:44;;;;;;;9.65;2.90;;;;;;;;;;5105147;28;20049;-78
2022/05/08 08:09:10;;;;;;;15.23;3.63;;;;;;;;;;5088821;28;20044;-80
2022/05/08 08:11:38;;;;;;;13.18;3.42;;;;;;;;;;5098622;28;20051;-79
2022/05/08 08:14:05;;;;;;;10.63;3.00;;;;;;;;;;5078094;28;20510;-77
2022/05/08 08:16:31;;;;;;;11.25;3.38;;;;;;;;;;5088384;28;20454;-79
2022/05/08 08:18:58;;;;;;;9.02;2.78;;;;;;;;;;5094491;28;20066;-77
2022/05/08 08:21:24;;;;;;;11.93;3.17;;;;;;;;;;5082066;28;20222;-77
2022/05/08 08:23:50;;;;;;;7.78;2.83;;;;;;;;;;5102484;28;20072;-77
2022/05/08 08:26:17;;;;;;;9.23;2.97;;;;;;;;;;5092462;28;20054;-78
2022/05/08 08:28:44;;;;;;;11.82;3.20;;;;;;;;;;5086625;28;20036;-78
2022/05/08 08:31:10;;;;;;;8.48;2.80;;;;;;;;;;5097752;28;20128;-80
2022/05/08 08:33:40;;;;;;;10.63;3.13;;;;;;;;;;5079149;28;20040;-79
2022/05/08 08:36:07;;;;;;;9.10;2.72;;;;;;;;;;5104921;28;20051;-78
2022/05/08 08:38:33;;;;;;;14.38;3.10;;;;;;;;;;5093242;28;20040;-77
2022/05/08 08:41:04;;;;;;;10.50;2.70;;;;;;;;;;5108702;28;20390;-79
2022/05/08 08:49:04;;;;;;;;;;;;;;;;;;5109569;28;20127;-77
2022/05/08 08:51:30;;;;;;;9.00;2.70;;;;;;;;;;5090345;28;19924;-78
2022/05/08 08:53:56;;;;;;;12.10;3.40;;;;;;;;;;5074809;28;20119;-77
2022/05/08 08:56:22;;;;;;;10.40;2.85;;;;;;;;;;5089980;28;20031;-78
2022/05/08 08:58:49;;;;;;;10.75;2.60;;;;;;;;;;5089011;28;20120;-80
2022/05/08 09:01:15;;;;;;;11.88;3.17;;;;;;;;;;5095989;28;20046;-78
2022/05/08 09:03:56;;;;;;;11.50;3.08;;;;;;;;;;5089593;28;20039;-78
2022/05/08 09:06:22;;;;;;;12.57;2.80;;;;;;;;;;5088261;28;20036;-79
2022/05/08 09:08:48;;;;;;;12.93;2.92;;;;;;;;;;5096031;28;20036;-78
2022/05/08 09:11:32;;;;;;;7.85;2.92;;;;;;;;;;5090985;28;20499;-78
2022/05/08 09:13:58;;;;;;;12.13;2.33;;;;;;;;;;5088920;28;20122;-79
2022/05/08 09:16:24;;;;;;;9.35;2.80;;;;;;;;;;5086674;28;20036;-78
2022/05/08 09:18:50;;;;;;;10.40;2.88;;;;;;;;;;5073355;28;20045;-79
2022/05/08 09:24:09;;;;;;;9.25;2.70;;;;;;;;;;5084407;28;20361;-79
2022/05/08 09:26:36;;;;;;;8.07;3.00;;;;;;;;;;5071663;28;20235;-80
2022/05/08 09:29:03;;;;;;;9.02;2.85;;;;;;;;;;5069518;28;21150;-79
2022/05/08 09:31:38;;;;;;;11.45;3.38;;;;;;;;;;5075131;28;20027;-78
2022/05/08 09:34:04;;;;;;;14.32;3.35;;;;;;;;;;5091483;28;20550;-78
2022/05/08 09:36:30;;;;;;;13.00;3.05;;;;;;;;;;5077343;28;20043;-78
2022/05/08 09:38:58;;;;;;;10.43;3.30;;;;;;;;;;5094263;28;20046;-79
2022/05/08 09:41:26;;;;;;;15.68;3.80;;;;;;;;;;5077298;28;20108;-78
2022/05/08 09:43:56;;;;;;;9.02;3.17;;;;;;;;;;5094428;28;20070;-77
2022/05/08 09:46:23;;;;;;;11.48;3.55;;;;;;;;;;5092264;28;20043;-80
2022/05/08 09:48:50;;;;;;;12.60;3.45;;;;;;;;;;5077091;28;20564;-79
2022/05/08 09:51:16;;;;;;;10.70;3.13;;;;;;;;;;5077281;28;20036;-79
2022/05/08 09:53:43;;;;;;;11.88;3.17;;;;;;;;;;5094533;28;20263;-78
2022/05/08 09:56:10;;;;;;;9.25;3.00;;;;;;;;;;5091332;28;20051;-79
2022/05/08 09:58:39;;;;;;;8.95;2.58;;;;;;;;;;5076728;28;20118;-80
2022/05/08 10:01:07;;;;;;;11.02;3.38;;;;;;;;;;5093779;28;20146;-80
2022/05/08 10:03:33;;;;;;;10.98;2.80;;;;;;;;;;5094018;28;20032;-81
2022/05/08 10:06:00;;;;;;;11.23;3.30;;;;;;;;;;5094075;28;20040;-79
2022/05/08 10:08:30;;;;;;;11.60;3.33;;;;;;;;;;5076638;28;20058;-81
2022/05/08 10:13:58;;;;;;;9.93;2.80;;;;;;;;;;5094027;28;20034;-79
2022/05/08 10:16:43;;;;;;;10.13;2.80;;;;;;;;;;5094128;28;20391;-77
2022/05/08 10:19:19;;;;;;;14.23;3.28;;;;;;;;;;5093833;28;20054;-86
2022/05/08 10:22:03;;;;;;;7.97;2.65;;;;;;;;;;5093142;28;20035;-79
2022/05/08 10:24:39;;;;;;;14.77;3.10;;;;;;;;;;5087311;28;20088;-79
2022/05/08 10:27:13;;;;;;;11.13;3.42;;;;;;;;;;5079421;28;20039;-78
2022/05/08 10:29:39;;;;;;;11.32;2.88;;;;;;;;;;5089000;28;20119;-77
2022/05/08 10:32:14;;;;;;;9.32;3.20;;;;;;;;;;5091374;28;20031;-79
2022/05/08 10:34:41;;;;;;;13.07;3.10;;;;;;;;;;5091683;28;20056;-77
2022/05/08 10:37:13;;;;;;;9.73;2.97;;;;;;;;;;5091845;28;20056;-78
2022/05/08 10:39:42;;;;;;;10.95;3.00;;;;;;;;;;5090055;28;20068;-80
2022/05/08 10:42:39;;;;;;;10.52;3.20;;;;;;;;;;5088916;28;20032;-78
2022/05/08 10:45:05;;;;;;;12.98;2.72;;;;;;;;;;5084082;28;20052;-80
2022/05/08 10:47:36;;;;;;;10.13;2.92;;;;;;;;;;5090415;28;20096;-78
2022/05/08 10:50:12;;;;;;;14.90;3.38;;;;;;;;;;5085868;28;20072;-79
2022/05/08 10:52:42;;;;;;;11.48;3.42;;;;;;;;;;5085257;28;20066;-80
2022/05/08 10:55:12;;;;;;;12.40;3.50;;;;;;;;;;5088059;28;20036;-79
2022/05/08 10:57:39;;;;;;;9.57;3.00;;;;;;;;;;5073949;28;20036;-79
2022/05/08 11:00:06;;;;;;;9.43;2.88;;;;;;;;;;5088741;28;20134;-78
2022/05/08 11:03:02;;;;;;;15.43;3.60;;;;;;;;;;5087666;28;20122;-79
2022/05/08 11:05:29;;;;;;;15.13;3.75;;;;;;;;;;5054561;28;20079;-79
2022/05/08 11:08:12;;;;;;;9.52;2.88;;;;;;;;;;5090327;28;20032;-78
2022/05/08 11:10:42;;;;;;;7.68;2.72;;;;;;;;;;5073292;28;20130;-79
2022/05/08 11:13:10;;;;;;;9.98;3.13;;;;;;;;;;5073683;28;20117;-79
2022/05/08 11:15:37;;;;;;;10.07;2.90;;;;;;;;;;5074319;28;20036;-77
2022/05/08 11:18:09;;;;;;;9.93;2.83;;;;;;;;;;5087510;28;20032;-79
2022/05/08 11:20:36;;;;;;;10.07;3.30;;;;;;;;;;5084802;28;20033;-80
2022/05/08 11:23:06;;;;;;;10.18;2.70;;;;;;;;;;5083681;28;20070;-79
2022/05/08 11:25:33;;;;;;;9.30;2.90;;;;;;;;;;5088261;28;20035;-79
2022/05/08 11:28:00;;;;;;;9.13;2.88;;;;;;;;;;5088722;28;20036;-79
2022/05/08 11:30:27;;;;;;;13.27;3.50;;;;;;;;;;5071920;28;20036;-79
2022/05/08 11:38:23;;;;;;;8.80;2.70;;;;;;;;;;5087996;28;20066;-79
2022/05/08 11:40:50;;;;;;;11.65;3.50;;;;;;;;;;5084170;28;20114;-79
2022/05/08 11:43:34;;;;;;;10.32;3.25;;;;;;;;;;5072205;28;20036;-80
2022/05/08 11:46:01;;;;;;;;;;;;;;;;;;5073348;28;20040;-80
2022/05/08 11:48:36;;;;;;;8.60;3.00;;;;;;;;;;5089338;28;20176;-79
2022/05/08 11:51:03;;;;;;;12.60;3.17;;;;;;;;;;5072142;28;20028;-78
2022/05/08 11:53:38;;;;;;;7.85;2.97;;;;;;;;;;5090182;28;20380;-79
2022/05/08 11:56:20;;;;;;;10.85;2.40;;;;;;;;;;5089813;28;20048;-79
2022/05/08 11:58:47;;;;;;;8.95;2.72;;;;;;;;;;5086668;28;20159;-79
2022/05/08 12:01:26;;;;;;;10.38;2.90;;;;;;;;;;5086366;28;20044;-80
2022/05/08 12:03:52;;;;;;;9.05;2.88;;;;;;;;;;5122671;27;20036;-80
2022/05/08 12:06:18;;;;;;;8.57;2.80;;;;;;;;;;5088238;28;20380;-79
2022/05/08 12:08:45;;;;;;;7.15;2.20;;;;;;;;;;5086872;28;20147;-77
2022/05/08 12:11:27;;;;;;;11.18;2.15;;;;;;;;;;5073797;28;20422;-78
2022/05/08 12:14:00;;;;;;;17.13;3.13;;;;;;;;;;5086199;28;20075;-79
2022/05/08 12:16:26;;;;;;;9.10;2.50;;;;;;;;;;5071592;28;20042;-78
2022/05/08 12:19:11;;;;;;;11.38;2.80;;;;;;;;;;5087985;28;20032;-77
2022/05/08 12:21:38;;;;;;;;;;;;;;;;;;5071962;28;20047;-79
2022/05/08 12:24:08;;;;;;;12.48;2.92;;;;;;;;;;5072398;28;19927;-79
2022/05/08 12:26:34;;;;;;;8.98;2.35;;;;;;;;;;5057529;28;20040;-81
2022/05/08 12:29:00;;;;;;;7.15;2.22;;;;;;;;;;5053402;28;20521;-79
2022/05/08 12:31:27;;;;;;;10.10;2.75;;;;;;;;;;5114263;27;20043;-78
2022/05/08 12:33:53;;;;;;;11.00;2.35;;;;;;;;;;5088327;28;20040;-79
2022/05/08 12:36:19;;;;;;;9.90;2.50;;;;;;;;;;5087175;28;20052;-79
2022/05/08 12:38:45;;;;;;;7.85;2.10;;;;;;;;;;5095456;28;20047;-80
2022/05/08 12:41:12;;;;;;;9.50;2.33;;;;;;;;;;5097074;28;20036;-78
2022/05/08 12:43:38;;;;;;;7.15;2.63;;;;;;;;;;5102452;28;20118;-78
2022/05/08 12:46:04;;;;;;;6.55;2.15;;;;;;;;;;5089901;28;20036;-79
2022/05/08 12:48:31;;;;;;;9.10;2.80;;;;;;;;;;5096424;28;20169;-78
2022/05/08 12:50:57;;;;;;;9.82;3.03;;;;;;;;;;5089932;28;20043;-79
2022/05/08 12:53:23;;;;;;;9.93;2.65;;;;;;;;;;5091610;28;20398;-79
2022/05/08 12:55:49;;;;;;;12.82;3.05;;;;;;;;;;5080013;28;20398;-79
2022/05/08 13:01:00;;;;;;;8.35;2.83;;;;;;;;;;5084233;28;20036;-79
2022/05/08 13:03:26;;;;;;;9.02;3.00;;;;;;;;;;5070379;28;20032;-80
2022/05/08 13:05:52;;;;;;;8.10;2.55;;;;;;;;;;5088605;28;20046;-80
2022/05/08 13:08:19;;;;;;;7.63;2.58;;;;;;;;;;5091663;28;20056;-79
2022/05/08 13:10:45;;;;;;;13.73;3.20;;;;;;;;;;5086978;28;20032;-79
2022/05/08 13:13:11;;;;;;;7.65;2.70;;;;;;;;;;5071571;28;20047;-79
2022/05/08 13:15:37;;;;;;;8.27;2.92;;;;;;;;;;5070689;28;20082;-78
2022/05/08 13:18:03;;;;;;;10.07;2.88;;;;;;;;;;5072027;28;20032;-78
2022/05/08 13:20:30;;;;;;;10.55;2.72;;;;;;;;;;5089786;28;20046;-77
2022/05/08 13:22:56;;;;;;;11.15;2.60;;;;;;;;;;5072999;28;20175;-78
2022/05/08 13:25:22;;;;;;;8.55;3.00;;;;;;;;;;5073127;28;20418;-80
2022/05/08 13:27:48;;;;;;;10.43;2.85;;;;;;;;;;5085376;28;20564;-77
2022/05/08 13:30:14;;;;;;;9.40;2.78;;;;;;;;;;5080185;28;20090;-79
2022/05/08 13:32:40;;;;;;;7.40;2.13;;;;;;;;;;5085760;28;20102;-79
2022/05/08 13:35:07;;;;;;;8.00;2.55;;;;;;;;;;5069455;28;20127;-79
2022/05/08 13:37:33;;;;;;;9.48;2.42;;;;;;;;;;5070160;28;20371;-79
2022/05/08 13:39:59;;;;;;;13.10;2.60;;;;;;;;;;5086993;28;20123;-79
2022/05/08 13:42:26;;;;;;;9.25;2.17;;;;;;;;;;5087245;28;20124;-78
2022/05/08 13:44:55;;;;;;;8.13;2.53;;;;;;;;;;5086913;28;20523;-79
2022/05/08 13:47:22;;;;;;;8.55;2.50;;;;;;;;;;5068647;28;20067;-79
2022/05/08 13:49:48;;;;;;;7.82;2.47;;;;;;;;;;5069984;28;20032;-79
2022/05/08 13:52:14;;;;;;;9.82;3.40;;;;;;;;;;5085842;28;20050;-79
2022/05/08 13:54:43;;;;;;;9.40;3.08;;;;;;;;;;5070057;28;20032;-79
2022/05/08 13:57:09;;;;;;;9.05;2.88;;;;;;;;;;5085533;28;20565;-80
2022/05/08 13:59:36;;;;;;;11.23;2.67;;;;;;;;;;5086654;28;20563;-79
2022/05/08 14:02:03;;;;;;;10.85;2.92;;;;;;;;;;5086313;28;20519;-78
2022/05/08 14:04:29;;;;;;;9.77;2.80;;;;;;;;;;5085682;28;20051;-78
2022/05/08 14:06:55;;;;;;;10.95;2.80;;;;;;;;;;5085824;28;20068;-80
2022/05/08 14:09:21;;;;;;;10.98;2.58;;;;;;;;;;5069933;28;20054;-78
2022/05/08 14:11:52;;;;;;;8.15;2.60;;;;;;;;;;5087046;28;20510;-79
2022/05/08 14:14:18;;;;;;;6.95;2.20;;;;;;;;;;5069776;28;20029;-78
2022/05/08 14:16:44;;;;;;;13.35;2.80;;;;;;;;;;5086941;28;20147;-79
2022/05/08 14:19:11;;;;;;;9.15;2.70;;;;;;;;;;5088431;28;20062;-79
2022/05/08 14:21:37;;;;;;;9.98;2.88;;;;;;;;;;5090448;28;20123;-74
2022/05/08 14:24:03;;;;;;;11.38;2.97;;;;;;;;;;5090060;28;20498;-75
2022/05/08 14:26:29;;;;;;;9.68;2.50;;;;;;;;;;5089837;28;20372;-75
2022/05/08 14:28:56;;;;;;;10.80;3.00;;;;;;;;;;5087181;28;20040;-76
2022/05/08 14:36:51;;;;;;;7.78;2.28;;;;;;;;;;5088306;28;20047;-74
2022/05/08 14:39:17;;;;;;;10.65;3.17;;;;;;;;;;5089940;28;20048;-76
2022/05/08 14:41:45;;;;;;;9.82;2.58;;;;;;;;;;5089943;28;20403;-75
2022/05/08 14:44:11;;;;;;;8.07;2.28;;;;;;;;;;5089455;28;20040;-76
2022/05/08 14:46:37;;;;;;;7.00;2.30;;;;;;;;;;5089281;28;20043;-77
2022/05/08 14:49:07;;;;;;;8.90;2.88;;;;;;;;;;5071460;28;20182;-76
2022/05/08 14:51:34;;;;;;;8.85;2.38;;;;;;;;;;5072373;28;20032;-75
2022/05/08 14:54:00;;;;;;;11.45;2.80;;;;;;;;;;5071324;28;20451;-76
2022/05/08 14:56:27;;;;;;;10.20;2.35;;;;;;;;;;5086167;28;20601;-76
2022/05/08 14:58:53;;;;;;;8.98;2.72;;;;;;;;;;5072371;28;20047;-79
2022/05/08 15:01:20;;;;;;;7.50;2.45;;;;;;;;;;5089556;28;20456;-78
2022/05/08 15:03:47;;;;;;;8.68;2.67;;;;;;;;;;5087603;28;20065;-79
2022/05/08 15:06:13;;;;;;;9.82;2.55;;;;;;;;;;5084474;28;20602;-79
2022/05/08 15:08:42;;;;;;;9.43;2.65;;;;;;;;;;5089207;28;20040;-79
2022/05/08 15:11:08;;;;;;;10.40;2.63;;;;;;;;;;5089283;28;20028;-80
2022/05/08 15:13:38;;;;;;;7.93;2.53;;;;;;;;;;5088741;28;20058;-79
2022/05/08 15:16:04;;;;;;;7.60;2.50;;;;;;;;;;5088307;28;20036;-80
2022/05/08 15:18:48;;;;;;;10.45;2.58;;;;;;;;;;5089002;28;20043;-80